createdAt,value
2024-04-23T00:12:09.306Z,0.90
2024-04-23T00:25:09.290Z,0.70
2024-04-23T00:38:09.315Z,0.70
2024-04-23T00:51:09.320Z,0.70
2024-04-23T01:04:09.328Z,0.80
2024-04-23T01:17:09.375Z,0.60
2024-04-23T01:30:09.336Z,0.60
2024-04-23T01:43:09.319Z,0.50
2024-04-23T01:56:09.372Z,0.50
2024-04-23T02:09:09.390Z,0.40
2024-04-23T02:22:09.342Z,0.30
2024-04-23T02:35:09.378Z,0.30
2024-04-23T02:48:09.414Z,0.30
2024-04-23T03:01:09.379Z,0.30
2024-04-23T03:14:09.383Z,0.30
2024-04-23T03:27:09.393Z,0.20
2024-04-23T03:40:09.359Z,0.20
2024-04-23T03:53:09.434Z,0.25
2024-04-23T04:06:09.385Z,0.20
2024-04-23T04:20:09.384Z,0.10
2024-04-23T04:34:09.394Z,0.10
2024-04-23T04:48:09.503Z,0.40
2024-04-23T05:02:09.580Z,0.60
2024-04-23T05:16:09.462Z,0.50
2024-04-23T05:30:09.475Z,0.60
2024-04-23T05:44:09.450Z,0.60
2024-04-23T05:59:09.461Z,0.60
2024-04-23T06:14:09.491Z,0.35
2024-04-23T06:28:09.455Z,0.35
2024-04-23T06:42:09.464Z,0.30
2024-04-23T06:56:09.488Z,0.10
2024-04-23T07:10:09.464Z,0.20
2024-04-23T07:24:09.472Z,0.20
2024-04-23T07:38:09.531Z,0.20
2024-04-23T07:52:09.486Z,0.10
2024-04-23T08:06:09.550Z,0.20
2024-04-23T08:20:09.490Z,0.10
2024-04-23T08:34:09.489Z,0.10
2024-04-23T08:48:09.638Z,0.10
2024-04-23T09:02:09.560Z,0.60
2024-04-23T09:17:09.570Z,1.40
2024-04-23T09:31:09.514Z,1.50
2024-04-23T09:45:09.546Z,1.60
2024-04-23T09:59:09.589Z,1.60
2024-04-23T10:13:09.543Z,1.30
2024-04-23T10:27:09.535Z,1.90
2024-04-23T10:41:09.577Z,1.60
2024-04-23T10:55:09.570Z,1.40
2024-04-23T11:09:09.650Z,1.10
2024-04-23T11:23:09.706Z,1.30
2024-04-23T11:37:09.563Z,1.40
2024-04-23T11:51:09.602Z,2.40
2024-04-23T12:05:09.720Z,2.70
2024-04-23T12:19:09.614Z,2.70
2024-04-23T12:33:09.722Z,2.40
2024-04-23T12:47:09.766Z,2.10
2024-04-23T13:01:09.699Z,1.80
2024-04-23T13:15:09.625Z,1.80
2024-04-23T13:29:09.619Z,1.60
2024-04-23T13:43:09.615Z,1.60
2024-04-23T13:57:09.601Z,1.50
2024-04-23T14:11:09.943Z,1.25
2024-04-23T14:25:09.641Z,1.20
2024-04-23T14:39:09.626Z,1.90
2024-04-23T14:53:09.740Z,1.60
2024-04-23T15:07:09.660Z,1.80
2024-04-23T15:21:09.687Z,1.60
2024-04-23T15:35:09.840Z,2.50
2024-04-23T15:49:09.680Z,1.90
2024-04-23T16:03:09.713Z,1.85
2024-04-23T16:18:09.894Z,1.70
2024-04-23T16:32:09.726Z,1.50
2024-04-23T16:46:09.903Z,1.50
2024-04-23T17:00:09.746Z,1.30
2024-04-23T17:14:09.755Z,1.20
2024-04-23T17:29:09.780Z,1.30
2024-04-23T17:43:09.717Z,1.10
2024-04-23T17:57:09.819Z,1.00
2024-04-23T18:12:09.887Z,1.30
2024-04-23T18:26:09.791Z,1.20
2024-04-23T18:40:09.776Z,0.90
2024-04-23T18:53:09.787Z,0.90
2024-04-23T19:06:09.780Z,1.00
2024-04-23T19:19:09.852Z,1.20
2024-04-23T19:32:10.072Z,1.30
2024-04-23T19:45:09.776Z,1.60
2024-04-23T19:58:09.771Z,1.30
2024-04-23T20:11:09.861Z,1.60
2024-04-23T20:24:09.822Z,1.20
2024-04-23T20:37:09.804Z,0.95
2024-04-23T20:50:09.841Z,1.20
2024-04-23T21:03:09.845Z,1.10
2024-04-23T21:16:09.840Z,0.90
2024-04-23T21:29:09.823Z,0.90
2024-04-23T21:42:10.343Z,1.30
2024-04-23T21:55:10.029Z,1.05
2024-04-23T22:08:09.856Z,0.80
2024-04-23T22:21:09.817Z,0.90
2024-04-23T22:34:09.948Z,1.00
2024-04-23T22:47:10.012Z,0.90
2024-04-23T23:00:09.939Z,1.00
2024-04-23T23:13:09.838Z,0.95
2024-04-23T23:26:09.846Z,1.10
2024-04-23T23:39:09.852Z,1.10
2024-04-23T23:52:09.839Z,1.20
